createdAt,value
2022-12-04T00:00:01.798Z,100970.41
2022-12-04T00:02:28.220Z,100974.03
2022-12-04T00:04:54.634Z,100975.72
2022-12-04T00:07:21.071Z,100981.03
2022-12-04T00:09:47.466Z,100974.03
2022-12-04T00:12:13.871Z,100977.56
2022-12-04T00:15:00.741Z,100973.06
2022-12-04T00:17:26.642Z,100971.38
2022-12-04T00:19:53.555Z,100968.72
2022-12-04T00:22:21.187Z,100967.09
2022-12-04T00:24:47.666Z,100966.25
2022-12-04T00:27:14.042Z,100968.72
2022-12-04T00:29:40.450Z,100964.44
2022-12-04T00:32:06.988Z,100967.09
2022-12-04T00:34:33.435Z,100965.44
2022-12-04T00:36:59.864Z,100966.41
2022-12-04T00:39:26.286Z,100970.72
2022-12-04T00:41:52.726Z,100970.72
2022-12-04T00:44:19.158Z,100962.94
2022-12-04T00:46:45.659Z,100972.72
2022-12-04T00:49:14.254Z,100968.25
2022-12-04T00:51:40.631Z,100968.41
2022-12-04T00:54:10.304Z,100966.56
2022-12-04T00:56:36.743Z,100975.53
2022-12-04T00:59:05.495Z,100960.44
2022-12-04T01:01:34.397Z,100972.72
2022-12-04T01:04:00.795Z,100962.25
2022-12-04T01:06:31.836Z,100964.91
2022-12-04T01:08:58.954Z,100967.41
2022-12-04T01:11:25.987Z,100960.44
2022-12-04T01:13:52.591Z,100957.63
2022-12-04T01:16:23.854Z,100954.81
2022-12-04T01:18:50.881Z,100945.16
2022-12-04T01:21:18.021Z,100941.53
2022-12-04T01:23:44.488Z,100944.19
2022-12-04T01:26:11.103Z,100947.50
2022-12-04T01:28:39.798Z,100931.56
2022-12-04T01:31:11.054Z,100932.41
2022-12-04T01:33:37.894Z,100933.22
2022-12-04T01:36:05.585Z,100934.91
2022-12-04T01:38:32.043Z,100926.09
2022-12-04T01:40:58.511Z,100936.41
2022-12-04T01:43:27.771Z,100936.41
2022-12-04T01:45:58.292Z,100935.41
2022-12-04T01:48:28.032Z,100932.59
2022-12-04T01:51:00.771Z,100927.28
2022-12-04T01:53:27.492Z,100934.25
2022-12-04T01:55:54.929Z,100929.75
2022-12-04T01:58:23.174Z,100930.59
2022-12-04T02:00:53.833Z,100929.75
2022-12-04T02:03:22.147Z,100937.56
2022-12-04T02:05:48.536Z,100935.91
2022-12-04T02:08:15.108Z,100929.59
2022-12-04T02:10:50.583Z,100925.28
2022-12-04T02:13:20.831Z,100938.41
2022-12-04T02:15:59.173Z,100928.63
2022-12-04T02:18:44.488Z,100923.31
2022-12-04T02:21:33.558Z,100929.44
2022-12-04T02:23:59.916Z,100915.34
2022-12-04T02:26:26.251Z,100919.66
2022-12-04T02:29:11.844Z,100918.00
2022-12-04T02:31:43.948Z,100916.16
2022-12-04T02:34:13.032Z,100920.47
2022-12-04T02:37:00.390Z,100911.69
2022-12-04T02:39:45.560Z,100922.16
2022-12-04T02:42:27.072Z,100920.31
2022-12-04T02:44:56.165Z,100921.00
2022-12-04T02:47:23.957Z,100913.03
2022-12-04T02:49:57.885Z,100923.47
2022-12-04T02:52:29.005Z,100916.50
2022-12-04T02:54:58.717Z,100919.84
2022-12-04T02:57:28.732Z,100923.47
2022-12-04T02:59:56.783Z,100914.53
2022-12-04T03:02:28.289Z,100915.34
2022-12-04T03:04:56.081Z,100920.66
2022-12-04T03:07:31.030Z,100916.19
2022-12-04T03:10:02.873Z,100909.84
2022-12-04T03:12:51.045Z,100907.19
2022-12-04T03:15:20.037Z,100909.03
2022-12-04T03:17:50.599Z,100904.72
2022-12-04T03:20:19.713Z,100899.41
2022-12-04T03:22:52.017Z,100903.72
2022-12-04T03:25:18.394Z,100897.44
2022-12-04T03:27:57.886Z,100894.78
2022-12-04T03:30:24.526Z,100888.47
2022-12-04T03:33:01.610Z,100878.84
2022-12-04T03:35:40.346Z,100886.63
2022-12-04T03:38:23.835Z,100877.84
2022-12-04T03:40:58.272Z,100882.13
2022-12-04T03:43:29.679Z,100889.13
2022-12-04T03:46:01.612Z,100897.09
2022-12-04T03:48:40.963Z,100900.44
2022-12-04T03:51:13.681Z,100902.06
2022-12-04T03:53:46.086Z,100904.59
2022-12-04T03:56:18.958Z,100914.38
2022-12-04T03:58:50.945Z,100905.41
2022-12-04T04:01:19.049Z,100898.25
2022-12-04T04:03:48.090Z,100897.44
2022-12-04T04:06:19.586Z,100905.41
2022-12-04T04:08:48.383Z,100907.91
2022-12-04T04:11:23.598Z,100907.06
2022-12-04T04:14:21.267Z,100906.91
2022-12-04T04:17:08.838Z,100903.41
2022-12-04T04:19:55.504Z,100898.09
2022-12-04T04:22:41.974Z,100893.78
2022-12-04T04:25:11.184Z,100897.25
2022-12-04T04:27:37.555Z,100899.09
2022-12-04T04:30:04.435Z,100898.09
2022-12-04T04:32:44.069Z,100892.78
2022-12-04T04:35:21.415Z,100887.47
2022-12-04T04:37:56.672Z,100896.09
2022-12-04T04:40:26.163Z,100899.75
2022-12-04T04:43:00.303Z,100902.25
2022-12-04T04:45:43.591Z,100899.44
2022-12-04T04:48:14.187Z,100895.75
2022-12-04T04:50:41.511Z,100901.06
2022-12-04T04:53:09.618Z,100902.56
2022-12-04T04:55:36.665Z,100903.44
2022-12-04T04:58:21.514Z,100898.13
2022-12-04T05:00:56.596Z,100897.09
2022-12-04T05:03:22.999Z,100896.09
2022-12-04T05:05:49.420Z,100898.75
2022-12-04T05:08:15.893Z,100895.94
2022-12-04T05:10:42.335Z,100895.94
2022-12-04T05:13:09.891Z,100903.78
2022-12-04T05:15:38.723Z,100902.09
2022-12-04T05:18:05.538Z,100901.25
2022-12-04T05:20:32.051Z,100903.78
2022-12-04T05:22:58.612Z,100911.56
2022-12-04T05:25:25.128Z,100904.59
2022-12-04T05:27:51.520Z,100906.44
2022-12-04T05:30:17.973Z,100908.22
2022-12-04T05:32:44.350Z,100895.63
2022-12-04T05:35:11.609Z,100904.59
2022-12-04T05:37:39.303Z,100899.44
2022-12-04T05:40:06.614Z,100903.78
2022-12-04T05:42:32.989Z,100902.09
2022-12-04T05:44:59.352Z,100907.41
2022-12-04T05:47:25.766Z,100902.09
2022-12-04T05:49:52.382Z,100910.06
2022-12-04T05:52:18.848Z,100907.41
2022-12-04T05:54:45.357Z,100907.41
2022-12-04T05:57:11.896Z,100901.25
2022-12-04T05:59:38.337Z,100910.06
2022-12-04T06:02:04.764Z,100902.91
2022-12-04T06:04:33.356Z,100910.72
2022-12-04T06:06:59.753Z,100913.56
2022-12-04T06:09:26.097Z,100913.56
2022-12-04T06:11:52.473Z,100914.41
2022-12-04T06:14:18.893Z,100908.91
2022-12-04T06:16:46.420Z,100914.41
2022-12-04T06:19:17.557Z,100909.09
2022-12-04T06:21:46.593Z,100915.22
2022-12-04T06:24:15.198Z,100912.72
2022-12-04T06:27:03.968Z,100920.69
2022-12-04T06:29:28.540Z,100919.72
2022-12-04T06:31:54.984Z,100914.41
2022-12-04T06:34:21.422Z,100908.22
2022-12-04T06:36:47.878Z,100918.88
2022-12-04T06:39:18.728Z,100928.50
2022-12-04T06:41:45.645Z,100920.53
2022-12-04T06:44:14.462Z,100928.34
2022-12-04T06:46:46.273Z,100919.53
2022-12-04T06:49:15.726Z,100927.19
2022-12-04T06:51:42.101Z,100926.34
2022-12-04T06:54:09.389Z,100927.19
2022-12-04T06:56:35.946Z,100933.16
2022-12-04T06:59:03.374Z,100929.50
2022-12-04T07:01:30.922Z,100934.63
2022-12-04T07:03:57.734Z,100938.97
2022-12-04T07:06:25.886Z,100933.34
2022-12-04T07:08:53.635Z,100932.31
2022-12-04T07:11:21.441Z,100927.84
2022-12-04T07:13:48.498Z,100938.16
2022-12-04T07:16:15.827Z,100934.66
2022-12-04T07:18:42.590Z,100935.31
2022-12-04T07:21:10.898Z,100938.97
2022-12-04T07:23:39.794Z,100937.81
2022-12-04T07:26:06.991Z,100935.00
2022-12-04T07:28:35.889Z,100924.38
2022-12-04T07:31:12.961Z,100931.31
2022-12-04T07:33:39.760Z,100928.50
2022-12-04T07:36:07.248Z,100930.16
2022-12-04T07:38:35.043Z,100925.69
2022-12-04T07:41:02.926Z,100927.34
2022-12-04T07:43:29.707Z,100923.69
2022-12-04T07:45:56.855Z,100925.34
2022-12-04T07:48:24.224Z,100925.34
2022-12-04T07:51:01.867Z,100927.03
2022-12-04T07:53:28.239Z,100932.34
2022-12-04T07:55:54.614Z,100930.69
2022-12-04T07:58:21.002Z,100927.84
2022-12-04T08:00:47.347Z,100924.19
2022-12-04T08:03:13.702Z,100927.84
2022-12-04T08:05:41.431Z,100924.19
2022-12-04T08:08:07.853Z,100932.16
2022-12-04T08:10:34.290Z,100925.00
2022-12-04T08:13:00.626Z,100933.00
2022-12-04T08:15:26.968Z,100935.66
2022-12-04T08:17:53.352Z,100936.50
2022-12-04T08:20:19.742Z,100935.66
2022-12-04T08:22:46.140Z,100947.94
2022-12-04T08:25:12.512Z,100941.81
2022-12-04T08:27:41.975Z,100938.13
2022-12-04T08:30:11.098Z,100940.66
2022-12-04T08:32:37.430Z,100928.34
2022-12-04T08:35:03.898Z,100933.66
2022-12-04T08:37:30.261Z,100935.34
2022-12-04T08:39:58.581Z,100940.66
2022-12-04T08:42:25.085Z,100941.66
2022-12-04T08:44:51.416Z,100941.81
2022-12-04T08:47:17.774Z,100939.97
2022-12-04T08:49:46.396Z,100946.28
2022-12-04T08:52:12.777Z,100943.78
2022-12-04T08:54:39.161Z,100947.31
2022-12-04T08:57:05.741Z,100933.34
2022-12-04T08:59:34.581Z,100929.84
2022-12-04T09:02:01.078Z,100935.16
2022-12-04T09:04:27.546Z,100934.31
2022-12-04T09:06:53.953Z,100932.66
2022-12-04T09:09:20.325Z,100934.31
2022-12-04T09:11:46.725Z,100932.66
2022-12-04T09:14:13.134Z,100936.00
2022-12-04T09:16:39.516Z,100936.66
2022-12-04T09:19:08.303Z,100931.50
2022-12-04T09:21:34.674Z,100934.28
2022-12-04T09:24:01.098Z,100937.50
2022-12-04T09:26:31.015Z,100937.66
2022-12-04T09:28:58.501Z,100934.09
2022-12-04T09:31:25.142Z,100934.78
2022-12-04T09:33:51.791Z,100917.09
2022-12-04T09:36:18.562Z,100924.63
2022-12-04T09:38:47.097Z,100920.72
2022-12-04T09:41:19.299Z,100920.69
2022-12-04T09:43:57.963Z,100917.63
2022-12-04T09:46:43.073Z,100915.63
2022-12-04T09:49:16.537Z,100921.78
2022-12-04T09:51:43.887Z,100920.31
2022-12-04T09:54:24.910Z,100917.31
2022-12-04T09:56:58.531Z,100918.84
2022-12-04T09:59:26.381Z,100921.16
2022-12-04T10:02:11.871Z,100922.94
2022-12-04T10:04:38.426Z,100915.66
2022-12-04T10:07:07.964Z,100927.25
2022-12-04T10:09:58.196Z,100913.50
2022-12-04T10:12:36.690Z,100909.00
2022-12-04T10:15:19.374Z,100912.28
2022-12-04T10:17:48.761Z,100905.91
2022-12-04T10:20:50.649Z,100901.97
2022-12-04T10:23:26.022Z,100899.25
2022-12-04T10:25:54.759Z,100897.81
2022-12-04T10:28:23.927Z,100896.97
2022-12-04T10:30:52.459Z,100910.28
2022-12-04T10:33:24.904Z,100908.44
2022-12-04T10:35:52.579Z,100903.94
2022-12-04T10:38:28.232Z,100900.00
2022-12-04T10:40:59.911Z,100906.00
2022-12-04T10:43:32.465Z,100911.56
2022-12-04T10:45:59.108Z,100898.66
2022-12-04T10:48:34.715Z,100905.69
2022-12-04T10:51:01.204Z,100898.75
2022-12-04T10:53:35.829Z,100889.81
2022-12-04T10:56:10.872Z,100891.56
2022-12-04T10:58:39.576Z,100889.59
2022-12-04T11:01:11.614Z,100887.63
2022-12-04T11:03:39.120Z,100882.00
2022-12-04T11:06:06.808Z,100878.00
2022-12-04T11:08:35.827Z,100881.22
2022-12-04T11:11:03.408Z,100873.75
2022-12-04T11:13:29.924Z,100879.44
2022-12-04T11:15:57.419Z,100876.13
2022-12-04T11:18:26.172Z,100872.81
2022-12-04T11:21:12.830Z,100871.31
2022-12-04T11:23:44.927Z,100863.50
2022-12-04T11:28:52.580Z,100861.19
2022-12-04T11:31:20.449Z,100860.34
2022-12-04T11:33:49.757Z,100865.69
2022-12-04T11:36:21.640Z,100864.88
2022-12-04T11:38:48.571Z,100870.53
2022-12-04T11:41:25.877Z,100868.88
2022-12-04T11:43:58.066Z,100861.88
2022-12-04T11:46:28.346Z,100862.88
2022-12-04T11:48:54.821Z,100874.53
2022-12-04T11:51:40.029Z,100872.06
2022-12-04T11:54:09.488Z,100868.75
2022-12-04T11:56:38.719Z,100867.91
2022-12-04T11:59:30.359Z,100876.06
2022-12-04T12:02:15.395Z,100867.44
2022-12-04T12:05:00.519Z,100868.25
2022-12-04T12:07:42.179Z,100872.75
2022-12-04T12:10:17.474Z,100864.94
2022-12-04T12:13:00.491Z,100863.94
2022-12-04T12:15:35.310Z,100864.13
2022-12-04T12:18:31.268Z,100865.94
2022-12-04T12:21:08.672Z,100857.13
2022-12-04T12:23:44.168Z,100866.13
2022-12-04T12:26:15.353Z,100866.13
2022-12-04T12:28:44.827Z,100863.47
2022-12-04T12:31:11.194Z,100849.31
2022-12-04T12:33:44.825Z,100855.63
2022-12-04T12:36:12.611Z,100847.66
2022-12-04T12:38:55.267Z,100852.97
2022-12-04T12:41:27.803Z,100851.34
2022-12-04T12:44:03.205Z,100840.69
2022-12-04T12:46:49.003Z,100833.69
2022-12-04T12:49:19.113Z,100844.34
2022-12-04T12:51:49.082Z,100843.66
2022-12-04T12:54:23.970Z,100832.22
2022-12-04T12:56:53.551Z,100827.69
2022-12-04T12:59:22.447Z,100834.03
2022-12-04T13:02:00.314Z,100824.22
2022-12-04T13:04:43.696Z,100832.22
2022-12-04T13:07:21.289Z,100826.03
2022-12-04T13:09:55.035Z,100826.03
2022-12-04T13:12:22.773Z,100833.19
2022-12-04T13:14:49.451Z,100821.75
2022-12-04T13:17:19.591Z,100818.91
2022-12-04T13:19:53.035Z,100806.59
2022-12-04T13:22:22.468Z,100809.25
2022-12-04T13:25:02.428Z,100803.09
2022-12-04T13:27:34.728Z,100788.75
2022-12-04T13:30:05.629Z,100801.25
2022-12-04T13:32:44.372Z,100789.78
2022-12-04T13:35:10.749Z,100797.78
2022-12-04T13:37:55.849Z,100785.47
2022-12-04T13:40:28.664Z,100790.78
2022-12-04T13:43:13.590Z,100786.47
2022-12-04T13:45:40.434Z,100792.63
2022-12-04T13:48:06.900Z,100791.78
2022-12-04T13:50:38.067Z,100783.81
2022-12-04T13:53:05.052Z,100779.47
2022-12-04T13:55:36.105Z,100777.84
2022-12-04T13:58:04.172Z,100776.81
2022-12-04T14:00:30.692Z,100782.31
2022-12-04T14:02:58.906Z,100776.19
2022-12-04T14:05:27.148Z,100771.03
2022-12-04T14:08:07.652Z,100767.53
2022-12-04T14:10:36.344Z,100768.56
2022-12-04T14:13:14.816Z,100764.22
2022-12-04T14:15:41.630Z,100771.53
2022-12-04T14:18:11.218Z,100771.53
2022-12-04T14:20:38.312Z,100760.06
2022-12-04T14:23:28.353Z,100766.41
2022-12-04T14:25:58.756Z,100761.25
2022-12-04T14:28:26.967Z,100765.72
2022-12-04T14:31:06.408Z,100763.25
2022-12-04T14:33:32.975Z,100763.59
2022-12-04T14:36:02.282Z,100768.94
2022-12-04T14:38:28.649Z,100758.28
2022-12-04T14:40:58.191Z,100754.94
2022-12-04T14:43:25.960Z,100761.94
2022-12-04T14:45:56.819Z,100758.47
2022-12-04T14:48:30.737Z,100760.28
2022-12-04T14:51:00.297Z,100760.28
2022-12-04T14:53:41.803Z,100749.63
2022-12-04T14:56:34.579Z,100758.47
2022-12-04T14:59:06.152Z,100757.47
2022-12-04T15:01:37.351Z,100761.94
2022-12-04T15:04:18.931Z,100754.94
2022-12-04T15:06:47.798Z,100746.97
2022-12-04T15:09:35.660Z,100748.00
2022-12-04T15:12:31.059Z,100753.31
2022-12-04T15:14:58.879Z,100754.50
2022-12-04T15:17:25.412Z,100748.31
2022-12-04T15:19:51.805Z,100757.97
2022-12-04T15:22:23.152Z,100758.97
2022-12-04T15:24:50.416Z,100762.66
2022-12-04T15:27:19.137Z,100762.66
2022-12-04T15:29:49.113Z,100766.13
2022-12-04T15:32:16.787Z,100768.97
2022-12-04T15:34:43.284Z,100764.66
2022-12-04T15:37:24.136Z,100762.00
2022-12-04T15:39:52.649Z,100769.97
2022-12-04T15:42:20.179Z,100772.63
2022-12-04T15:45:03.474Z,100782.28
2022-12-04T15:47:31.627Z,100788.59
2022-12-04T15:50:08.487Z,100792.06
2022-12-04T15:52:35.532Z,100786.75
2022-12-04T15:55:05.356Z,100798.25
2022-12-04T15:57:36.801Z,100794.59
2022-12-04T16:00:05.435Z,100794.59
2022-12-04T16:02:33.664Z,100790.91
2022-12-04T16:05:10.801Z,100791.94
2022-12-04T16:07:47.390Z,100790.91
2022-12-04T16:10:30.802Z,100790.91
2022-12-04T16:12:58.424Z,100796.22
2022-12-04T16:15:25.829Z,100800.72
2022-12-04T16:17:52.922Z,100799.91
2022-12-04T16:20:20.129Z,100802.41
2022-12-04T16:22:48.757Z,100805.06
2022-12-04T16:25:15.489Z,100807.72
2022-12-04T16:27:41.832Z,100803.22
2022-12-04T16:30:08.630Z,100800.56
2022-12-04T16:32:35.093Z,100804.88
2022-12-04T16:35:03.123Z,100800.56
2022-12-04T16:37:31.689Z,100799.56
2022-12-04T16:39:58.384Z,100802.22
2022-12-04T16:42:26.307Z,100806.53
2022-12-04T16:44:53.486Z,100801.22
2022-12-04T16:47:20.163Z,100809.22
2022-12-04T16:49:48.396Z,100813.50
2022-12-04T16:52:14.815Z,100808.19
2022-12-04T16:54:41.274Z,100812.50
2022-12-04T16:57:08.442Z,100807.19
2022-12-04T16:59:34.932Z,100810.50
2022-12-04T17:02:01.881Z,100813.19
2022-12-04T17:04:28.324Z,100813.19
2022-12-04T17:06:54.743Z,100811.50
2022-12-04T17:09:21.190Z,100820.16
2022-12-04T17:11:47.548Z,100818.50
2022-12-04T17:14:14.926Z,100820.97
2022-12-04T17:16:42.543Z,100821.78
2022-12-04T17:19:09.695Z,100817.31
2022-12-04T17:21:36.226Z,100822.66
2022-12-04T17:24:03.428Z,100824.13
2022-12-04T17:26:29.994Z,100823.09
2022-12-04T17:28:56.466Z,100823.78
2022-12-04T17:31:24.200Z,100822.78
2022-12-04T17:33:51.000Z,100824.44
2022-12-04T17:36:18.867Z,100816.47
2022-12-04T17:38:45.350Z,100817.28
2022-12-04T17:41:15.192Z,100831.22
2022-12-04T17:43:42.355Z,100827.75
2022-12-04T17:46:16.498Z,100822.06
2022-12-04T17:48:43.027Z,100818.41
2022-12-04T17:51:10.843Z,100820.06
2022-12-04T17:53:37.769Z,100820.72
2022-12-04T17:56:05.726Z,100812.72
